sensor_id;sensor_type;location;lat;lon;timestamp;P1;durP1;ratioP1;P2;durP2;ratioP2
67696;SDS011;54486;51.442;6.778;2023-05-17T00:01:54;8.57;;;2.55;;
67696;SDS011;54486;51.442;6.778;2023-05-17T00:04:22;8.50;;;2.50;;
67696;SDS011;54486;51.442;6.778;2023-05-17T00:06:49;7.72;;;2.67;;
67696;SDS011;54486;51.442;6.778;2023-05-17T00:09:16;8.52;;;2.75;;
67696;SDS011;54486;51.442;6.778;2023-05-17T00:11:43;7.78;;;2.40;;
67696;SDS011;54486;51.442;6.778;2023-05-17T00:14:10;10.00;;;2.92;;
67696;SDS011;54486;51.442;6.778;2023-05-17T00:16:37;8.43;;;2.70;;
67696;SDS011;54486;51.442;6.778;2023-05-17T00:19:05;8.00;;;2.50;;
67696;SDS011;54486;51.442;6.778;2023-05-17T00:21:32;12.27;;;2.90;;
67696;SDS011;54486;51.442;6.778;2023-05-17T00:23:59;10.33;;;3.10;;
67696;SDS011;54486;51.442;6.778;2023-05-17T00:26:26;10.52;;;3.10;;
67696;SDS011;54486;51.442;6.778;2023-05-17T00:28:53;9.52;;;3.30;;
67696;SDS011;54486;51.442;6.778;2023-05-17T00:31:20;13.25;;;3.75;;
67696;SDS011;54486;51.442;6.778;2023-05-17T00:33:50;11.32;;;3.03;;
67696;SDS011;54486;51.442;6.778;2023-05-17T00:36:17;9.77;;;3.20;;
67696;SDS011;54486;51.442;6.778;2023-05-17T00:38:45;10.38;;;2.88;;
67696;SDS011;54486;51.442;6.778;2023-05-17T00:41:12;13.02;;;2.70;;
67696;SDS011;54486;51.442;6.778;2023-05-17T00:43:39;10.13;;;3.00;;
67696;SDS011;54486;51.442;6.778;2023-05-17T00:46:06;11.80;;;3.20;;
67696;SDS011;54486;51.442;6.778;2023-05-17T00:48:33;9.82;;;3.17;;
67696;SDS011;54486;51.442;6.778;2023-05-17T00:51:00;10.43;;;3.20;;
67696;SDS011;54486;51.442;6.778;2023-05-17T00:53:28;9.77;;;2.97;;
67696;SDS011;54486;51.442;6.778;2023-05-17T00:55:55;10.07;;;3.15;;
67696;SDS011;54486;51.442;6.778;2023-05-17T00:58:22;9.45;;;3.13;;
67696;SDS011;54486;51.442;6.778;2023-05-17T01:00:50;10.45;;;3.03;;
67696;SDS011;54486;51.442;6.778;2023-05-17T01:03:18;9.18;;;2.92;;
67696;SDS011;54486;51.442;6.778;2023-05-17T01:05:46;9.67;;;3.00;;
67696;SDS011;54486;51.442;6.778;2023-05-17T01:08:14;13.07;;;3.72;;
67696;SDS011;54486;51.442;6.778;2023-05-17T01:13:41;13.25;;;3.90;;
67696;SDS011;54486;51.442;6.778;2023-05-17T01:16:32;12.37;;;3.70;;
67696;SDS011;54486;51.442;6.778;2023-05-17T01:19:07;11.55;;;3.45;;
67696;SDS011;54486;51.442;6.778;2023-05-17T01:28:02;11.10;;;3.13;;
67696;SDS011;54486;51.442;6.778;2023-05-17T01:30:30;8.93;;;3.17;;
67696;SDS011;54486;51.442;6.778;2023-05-17T01:32:59;11.27;;;3.53;;
67696;SDS011;54486;51.442;6.778;2023-05-17T01:35:29;11.18;;;3.45;;
67696;SDS011;54486;51.442;6.778;2023-05-17T01:37:56;11.55;;;2.80;;
67696;SDS011;54486;51.442;6.778;2023-05-17T01:40:23;8.82;;;2.85;;
67696;SDS011;54486;51.442;6.778;2023-05-17T01:43:00;9.50;;;2.95;;
67696;SDS011;54486;51.442;6.778;2023-05-17T01:45:39;11.35;;;3.38;;
67696;SDS011;54486;51.442;6.778;2023-05-17T01:48:14;7.78;;;2.50;;
67696;SDS011;54486;51.442;6.778;2023-05-17T01:50:47;11.35;;;3.75;;
67696;SDS011;54486;51.442;6.778;2023-05-17T01:53:29;9.65;;;3.80;;
67696;SDS011;54486;51.442;6.778;2023-05-17T01:56:03;11.68;;;3.40;;
67696;SDS011;54486;51.442;6.778;2023-05-17T01:58:44;10.63;;;3.20;;
67696;SDS011;54486;51.442;6.778;2023-05-17T02:01:12;10.35;;;3.50;;
67696;SDS011;54486;51.442;6.778;2023-05-17T02:03:41;12.07;;;3.50;;
67696;SDS011;54486;51.442;6.778;2023-05-17T02:06:08;11.88;;;3.83;;
67696;SDS011;54486;51.442;6.778;2023-05-17T02:08:36;13.23;;;3.60;;
67696;SDS011;54486;51.442;6.778;2023-05-17T02:11:03;15.80;;;4.07;;
67696;SDS011;54486;51.442;6.778;2023-05-17T02:13:30;10.85;;;3.65;;
67696;SDS011;54486;51.442;6.778;2023-05-17T02:16:01;9.77;;;2.80;;
67696;SDS011;54486;51.442;6.778;2023-05-17T02:18:29;9.38;;;3.50;;
67696;SDS011;54486;51.442;6.778;2023-05-17T02:20:58;11.55;;;3.65;;
67696;SDS011;54486;51.442;6.778;2023-05-17T02:23:32;9.30;;;3.60;;
67696;SDS011;54486;51.442;6.778;2023-05-17T02:25:58;12.50;;;3.80;;
67696;SDS011;54486;51.442;6.778;2023-05-17T02:28:26;10.33;;;3.93;;
67696;SDS011;54486;51.442;6.778;2023-05-17T02:30:53;12.60;;;3.80;;
67696;SDS011;54486;51.442;6.778;2023-05-17T02:33:22;9.35;;;3.30;;
67696;SDS011;54486;51.442;6.778;2023-05-17T02:35:49;9.25;;;3.60;;
67696;SDS011;54486;51.442;6.778;2023-05-17T02:38:16;13.47;;;3.93;;
67696;SDS011;54486;51.442;6.778;2023-05-17T02:40:44;10.67;;;3.13;;
67696;SDS011;54486;51.442;6.778;2023-05-17T02:43:11;13.10;;;3.97;;
67696;SDS011;54486;51.442;6.778;2023-05-17T02:45:38;11.35;;;3.33;;
67696;SDS011;54486;51.442;6.778;2023-05-17T02:48:06;12.05;;;3.50;;
67696;SDS011;54486;51.442;6.778;2023-05-17T02:50:33;11.82;;;3.85;;
67696;SDS011;54486;51.442;6.778;2023-05-17T02:53:00;11.27;;;3.67;;
67696;SDS011;54486;51.442;6.778;2023-05-17T02:55:27;12.30;;;3.88;;
67696;SDS011;54486;51.442;6.778;2023-05-17T02:57:56;13.88;;;4.07;;
67696;SDS011;54486;51.442;6.778;2023-05-17T03:00:23;11.98;;;4.13;;
67696;SDS011;54486;51.442;6.778;2023-05-17T03:02:50;13.95;;;3.92;;
67696;SDS011;54486;51.442;6.778;2023-05-17T03:05:18;10.68;;;3.70;;
67696;SDS011;54486;51.442;6.778;2023-05-17T03:07:46;12.60;;;3.50;;
67696;SDS011;54486;51.442;6.778;2023-05-17T03:10:13;14.00;;;4.07;;
67696;SDS011;54486;51.442;6.778;2023-05-17T03:12:40;11.00;;;3.60;;
67696;SDS011;54486;51.442;6.778;2023-05-17T03:15:08;10.75;;;3.80;;
67696;SDS011;54486;51.442;6.778;2023-05-17T03:17:35;12.05;;;3.92;;
67696;SDS011;54486;51.442;6.778;2023-05-17T03:20:03;10.52;;;3.85;;
67696;SDS011;54486;51.442;6.778;2023-05-17T03:22:31;12.82;;;3.85;;
67696;SDS011;54486;51.442;6.778;2023-05-17T03:24:58;10.97;;;3.90;;
67696;SDS011;54486;51.442;6.778;2023-05-17T03:27:26;11.50;;;3.77;;
67696;SDS011;54486;51.442;6.778;2023-05-17T03:29:53;11.23;;;3.95;;
67696;SDS011;54486;51.442;6.778;2023-05-17T03:32:20;12.35;;;4.05;;
67696;SDS011;54486;51.442;6.778;2023-05-17T03:34:47;10.70;;;4.07;;
67696;SDS011;54486;51.442;6.778;2023-05-17T03:37:15;12.95;;;4.05;;
67696;SDS011;54486;51.442;6.778;2023-05-17T03:39:42;9.93;;;3.70;;
67696;SDS011;54486;51.442;6.778;2023-05-17T03:42:09;13.80;;;4.03;;
67696;SDS011;54486;51.442;6.778;2023-05-17T03:44:36;10.90;;;4.18;;
67696;SDS011;54486;51.442;6.778;2023-05-17T03:47:04;13.05;;;3.97;;
67696;SDS011;54486;51.442;6.778;2023-05-17T03:49:32;12.10;;;4.43;;
67696;SDS011;54486;51.442;6.778;2023-05-17T03:51:59;12.43;;;4.57;;
67696;SDS011;54486;51.442;6.778;2023-05-17T03:54:26;13.93;;;4.22;;
67696;SDS011;54486;51.442;6.778;2023-05-17T03:56:53;12.85;;;3.47;;
67696;SDS011;54486;51.442;6.778;2023-05-17T03:59:20;13.90;;;3.92;;
67696;SDS011;54486;51.442;6.778;2023-05-17T04:01:47;12.02;;;3.83;;
67696;SDS011;54486;51.442;6.778;2023-05-17T04:04:15;12.43;;;4.03;;
67696;SDS011;54486;51.442;6.778;2023-05-17T04:06:42;13.18;;;4.63;;
67696;SDS011;54486;51.442;6.778;2023-05-17T04:09:09;13.20;;;4.25;;
67696;SDS011;54486;51.442;6.778;2023-05-17T04:11:39;13.80;;;4.43;;
67696;SDS011;54486;51.442;6.778;2023-05-17T04:14:07;10.63;;;4.00;;
67696;SDS011;54486;51.442;6.778;2023-05-17T04:16:34;12.73;;;4.70;;
67696;SDS011;54486;51.442;6.778;2023-05-17T04:19:02;13.20;;;4.10;;
67696;SDS011;54486;51.442;6.778;2023-05-17T04:21:29;11.20;;;3.85;;
67696;SDS011;54486;51.442;6.778;2023-05-17T04:23:57;11.20;;;4.50;;
67696;SDS011;54486;51.442;6.778;2023-05-17T04:26:25;16.15;;;5.28;;
67696;SDS011;54486;51.442;6.778;2023-05-17T04:28:52;13.13;;;4.60;;
67696;SDS011;54486;51.442;6.778;2023-05-17T04:31:19;16.17;;;5.07;;
67696;SDS011;54486;51.442;6.778;2023-05-17T04:33:47;15.98;;;5.90;;
67696;SDS011;54486;51.442;6.778;2023-05-17T04:36:14;16.42;;;7.20;;
67696;SDS011;54486;51.442;6.778;2023-05-17T04:38:41;18.20;;;7.25;;
67696;SDS011;54486;51.442;6.778;2023-05-17T04:41:09;19.27;;;6.97;;
67696;SDS011;54486;51.442;6.778;2023-05-17T04:43:36;17.05;;;6.50;;
67696;SDS011;54486;51.442;6.778;2023-05-17T04:46:05;19.05;;;6.72;;
67696;SDS011;54486;51.442;6.778;2023-05-17T04:48:32;17.42;;;6.45;;
67696;SDS011;54486;51.442;6.778;2023-05-17T04:51:00;21.00;;;8.15;;
67696;SDS011;54486;51.442;6.778;2023-05-17T04:53:30;21.48;;;9.25;;
67696;SDS011;54486;51.442;6.778;2023-05-17T04:55:57;22.02;;;7.93;;
67696;SDS011;54486;51.442;6.778;2023-05-17T04:58:26;24.55;;;8.82;;
67696;SDS011;54486;51.442;6.778;2023-05-17T05:00:53;20.60;;;8.70;;
67696;SDS011;54486;51.442;6.778;2023-05-17T05:03:21;22.70;;;8.85;;
67696;SDS011;54486;51.442;6.778;2023-05-17T05:05:49;22.27;;;8.95;;
67696;SDS011;54486;51.442;6.778;2023-05-17T05:08:16;20.25;;;7.82;;
67696;SDS011;54486;51.442;6.778;2023-05-17T05:10:43;21.30;;;7.97;;
67696;SDS011;54486;51.442;6.778;2023-05-17T05:13:11;17.65;;;6.85;;
67696;SDS011;54486;51.442;6.778;2023-05-17T05:15:39;15.25;;;5.30;;
67696;SDS011;54486;51.442;6.778;2023-05-17T05:18:07;13.10;;;4.95;;
67696;SDS011;54486;51.442;6.778;2023-05-17T05:20:34;13.23;;;4.53;;
67696;SDS011;54486;51.442;6.778;2023-05-17T05:23:01;13.30;;;3.88;;
67696;SDS011;54486;51.442;6.778;2023-05-17T05:25:31;13.00;;;3.80;;
67696;SDS011;54486;51.442;6.778;2023-05-17T05:28:21;12.95;;;3.47;;
67696;SDS011;54486;51.442;6.778;2023-05-17T05:30:56;11.43;;;3.40;;
67696;SDS011;54486;51.442;6.778;2023-05-17T05:33:27;10.48;;;3.30;;
67696;SDS011;54486;51.442;6.778;2023-05-17T05:35:54;12.13;;;3.50;;
67696;SDS011;54486;51.442;6.778;2023-05-17T05:38:21;9.77;;;3.00;;
67696;SDS011;54486;51.442;6.778;2023-05-17T05:40:48;12.75;;;3.50;;
67696;SDS011;54486;51.442;6.778;2023-05-17T05:43:17;12.02;;;3.22;;
67696;SDS011;54486;51.442;6.778;2023-05-17T05:45:44;12.07;;;3.13;;
67696;SDS011;54486;51.442;6.778;2023-05-17T05:48:12;12.27;;;3.00;;
67696;SDS011;54486;51.442;6.778;2023-05-17T05:50:40;11.67;;;2.90;;
67696;SDS011;54486;51.442;6.778;2023-05-17T05:53:09;9.57;;;2.85;;
67696;SDS011;54486;51.442;6.778;2023-05-17T05:55:46;10.52;;;3.05;;
67696;SDS011;54486;51.442;6.778;2023-05-17T05:58:13;7.85;;;2.40;;
67696;SDS011;54486;51.442;6.778;2023-05-17T06:00:40;9.07;;;2.30;;
67696;SDS011;54486;51.442;6.778;2023-05-17T06:03:07;10.15;;;2.40;;
67696;SDS011;54486;51.442;6.778;2023-05-17T06:05:35;10.48;;;2.20;;
67696;SDS011;54486;51.442;6.778;2023-05-17T06:08:02;10.18;;;2.58;;
67696;SDS011;54486;51.442;6.778;2023-05-17T06:10:29;7.65;;;2.53;;
67696;SDS011;54486;51.442;6.778;2023-05-17T06:12:57;10.20;;;2.40;;
67696;SDS011;54486;51.442;6.778;2023-05-17T06:15:25;9.30;;;2.63;;
67696;SDS011;54486;51.442;6.778;2023-05-17T06:17:52;10.85;;;2.35;;
67696;SDS011;54486;51.442;6.778;2023-05-17T06:20:20;9.38;;;2.67;;
67696;SDS011;54486;51.442;6.778;2023-05-17T06:22:47;7.82;;;2.38;;
67696;SDS011;54486;51.442;6.778;2023-05-17T06:25:14;9.30;;;2.20;;
67696;SDS011;54486;51.442;6.778;2023-05-17T06:27:44;8.60;;;2.22;;
67696;SDS011;54486;51.442;6.778;2023-05-17T06:30:12;8.50;;;1.85;;
67696;SDS011;54486;51.442;6.778;2023-05-17T06:32:39;10.20;;;2.25;;
67696;SDS011;54486;51.442;6.778;2023-05-17T06:35:07;10.38;;;2.30;;
67696;SDS011;54486;51.442;6.778;2023-05-17T06:37:35;9.40;;;2.00;;
67696;SDS011;54486;51.442;6.778;2023-05-17T06:40:03;10.25;;;2.10;;
67696;SDS011;54486;51.442;6.778;2023-05-17T06:42:44;9.32;;;1.88;;
67696;SDS011;54486;51.442;6.778;2023-05-17T06:45:12;8.18;;;1.92;;
67696;SDS011;54486;51.442;6.778;2023-05-17T06:47:39;8.43;;;2.08;;
67696;SDS011;54486;51.442;6.778;2023-05-17T06:50:06;11.82;;;2.20;;
67696;SDS011;54486;51.442;6.778;2023-05-17T06:52:34;8.45;;;1.90;;
67696;SDS011;54486;51.442;6.778;2023-05-17T06:55:02;9.43;;;1.83;;
67696;SDS011;54486;51.442;6.778;2023-05-17T06:57:30;8.77;;;1.90;;
67696;SDS011;54486;51.442;6.778;2023-05-17T06:59:57;9.85;;;1.90;;
67696;SDS011;54486;51.442;6.778;2023-05-17T07:02:25;7.97;;;2.00;;
67696;SDS011;54486;51.442;6.778;2023-05-17T07:04:53;6.30;;;1.63;;
67696;SDS011;54486;51.442;6.778;2023-05-17T07:07:20;9.98;;;1.80;;
67696;SDS011;54486;51.442;6.778;2023-05-17T07:09:50;8.18;;;1.70;;
67696;SDS011;54486;51.442;6.778;2023-05-17T07:12:17;9.20;;;2.30;;
67696;SDS011;54486;51.442;6.778;2023-05-17T07:14:44;9.23;;;2.00;;
67696;SDS011;54486;51.442;6.778;2023-05-17T07:17:11;7.35;;;1.90;;
67696;SDS011;54486;51.442;6.778;2023-05-17T07:19:38;9.10;;;2.10;;
67696;SDS011;54486;51.442;6.778;2023-05-17T07:22:06;9.25;;;2.05;;
67696;SDS011;54486;51.442;6.778;2023-05-17T07:24:34;6.38;;;1.60;;
67696;SDS011;54486;51.442;6.778;2023-05-17T07:27:01;6.70;;;1.70;;
67696;SDS011;54486;51.442;6.778;2023-05-17T07:29:29;6.90;;;1.70;;
67696;SDS011;54486;51.442;6.778;2023-05-17T07:31:57;11.63;;;1.77;;
67696;SDS011;54486;51.442;6.778;2023-05-17T07:34:24;7.35;;;1.77;;
67696;SDS011;54486;51.442;6.778;2023-05-17T07:36:51;7.68;;;1.50;;
67696;SDS011;54486;51.442;6.778;2023-05-17T07:39:18;8.98;;;1.80;;
67696;SDS011;54486;51.442;6.778;2023-05-17T07:41:46;8.50;;;1.60;;
67696;SDS011;54486;51.442;6.778;2023-05-17T07:44:12;8.95;;;1.50;;
67696;SDS011;54486;51.442;6.778;2023-05-17T07:46:39;11.40;;;2.00;;
67696;SDS011;54486;51.442;6.778;2023-05-17T07:49:06;10.13;;;2.17;;
67696;SDS011;54486;51.442;6.778;2023-05-17T07:51:34;6.65;;;1.48;;
67696;SDS011;54486;51.442;6.778;2023-05-17T07:54:01;8.30;;;1.57;;
67696;SDS011;54486;51.442;6.778;2023-05-17T07:56:30;8.75;;;1.50;;
67696;SDS011;54486;51.442;6.778;2023-05-17T07:58:57;8.45;;;1.77;;
67696;SDS011;54486;51.442;6.778;2023-05-17T08:01:24;8.25;;;1.80;;
67696;SDS011;54486;51.442;6.778;2023-05-17T08:03:52;7.97;;;1.80;;
67696;SDS011;54486;51.442;6.778;2023-05-17T08:06:19;6.50;;;1.45;;
67696;SDS011;54486;51.442;6.778;2023-05-17T08:08:48;8.37;;;1.57;;
67696;SDS011;54486;51.442;6.778;2023-05-17T08:11:16;7.70;;;1.50;;
67696;SDS011;54486;51.442;6.778;2023-05-17T08:13:44;7.45;;;1.65;;
67696;SDS011;54486;51.442;6.778;2023-05-17T08:16:13;10.10;;;1.60;;
67696;SDS011;54486;51.442;6.778;2023-05-17T08:18:41;7.03;;;1.60;;
67696;SDS011;54486;51.442;6.778;2023-05-17T08:21:09;8.27;;;1.42;;
67696;SDS011;54486;51.442;6.778;2023-05-17T08:23:37;6.43;;;1.50;;
67696;SDS011;54486;51.442;6.778;2023-05-17T08:26:07;7.97;;;1.42;;
67696;SDS011;54486;51.442;6.778;2023-05-17T08:28:34;7.32;;;1.65;;
67696;SDS011;54486;51.442;6.778;2023-05-17T08:31:01;8.75;;;1.75;;
67696;SDS011;54486;51.442;6.778;2023-05-17T08:33:29;8.77;;;1.90;;
67696;SDS011;54486;51.442;6.778;2023-05-17T08:35:58;8.55;;;1.45;;
67696;SDS011;54486;51.442;6.778;2023-05-17T08:38:27;6.35;;;1.77;;
67696;SDS011;54486;51.442;6.778;2023-05-17T08:40:55;7.97;;;1.70;;
67696;SDS011;54486;51.442;6.778;2023-05-17T08:43:22;8.98;;;1.77;;
67696;SDS011;54486;51.442;6.778;2023-05-17T08:45:53;8.50;;;2.10;;
67696;SDS011;54486;51.442;6.778;2023-05-17T08:48:30;8.07;;;1.50;;
67696;SDS011;54486;51.442;6.778;2023-05-17T08:50:58;8.52;;;1.48;;
67696;SDS011;54486;51.442;6.778;2023-05-17T08:53:26;9.88;;;1.80;;
67696;SDS011;54486;51.442;6.778;2023-05-17T08:55:57;8.05;;;1.58;;
67696;SDS011;54486;51.442;6.778;2023-05-17T08:58:27;8.00;;;2.03;;
67696;SDS011;54486;51.442;6.778;2023-05-17T09:01:17;8.20;;;1.85;;
67696;SDS011;54486;51.442;6.778;2023-05-17T09:03:45;9.05;;;1.80;;
67696;SDS011;54486;51.442;6.778;2023-05-17T09:06:20;8.88;;;1.85;;
67696;SDS011;54486;51.442;6.778;2023-05-17T09:08:52;8.47;;;1.67;;
67696;SDS011;54486;51.442;6.778;2023-05-17T09:11:30;7.72;;;1.70;;
67696;SDS011;54486;51.442;6.778;2023-05-17T09:14:04;7.10;;;1.70;;
67696;SDS011;54486;51.442;6.778;2023-05-17T09:16:33;8.38;;;1.65;;
67696;SDS011;54486;51.442;6.778;2023-05-17T09:19:01;6.00;;;1.58;;
67696;SDS011;54486;51.442;6.778;2023-05-17T09:21:30;7.30;;;1.85;;
67696;SDS011;54486;51.442;6.778;2023-05-17T09:23:58;7.97;;;1.67;;
67696;SDS011;54486;51.442;6.778;2023-05-17T09:26:36;6.55;;;1.70;;
67696;SDS011;54486;51.442;6.778;2023-05-17T09:29:12;7.68;;;1.85;;
67696;SDS011;54486;51.442;6.778;2023-05-17T09:31:41;7.93;;;1.65;;
67696;SDS011;54486;51.442;6.778;2023-05-17T09:34:09;7.57;;;1.30;;
67696;SDS011;54486;51.442;6.778;2023-05-17T09:36:37;5.95;;;1.52;;
67696;SDS011;54486;51.442;6.778;2023-05-17T09:39:09;7.88;;;1.80;;
67696;SDS011;54486;51.442;6.778;2023-05-17T09:44:11;8.35;;;1.50;;
67696;SDS011;54486;51.442;6.778;2023-05-17T09:46:44;6.90;;;1.83;;
67696;SDS011;54486;51.442;6.778;2023-05-17T09:49:14;6.75;;;1.42;;
67696;SDS011;54486;51.442;6.778;2023-05-17T09:51:43;8.45;;;1.80;;
67696;SDS011;54486;51.442;6.778;2023-05-17T09:54:11;7.68;;;1.90;;
67696;SDS011;54486;51.442;6.778;2023-05-17T09:56:40;7.93;;;1.90;;
67696;SDS011;54486;51.442;6.778;2023-05-17T09:59:14;8.47;;;1.77;;
67696;SDS011;54486;51.442;6.778;2023-05-17T10:01:43;7.22;;;1.38;;
67696;SDS011;54486;51.442;6.778;2023-05-17T10:04:12;6.80;;;1.70;;
67696;SDS011;54486;51.442;6.778;2023-05-17T10:06:40;8.50;;;1.63;;
67696;SDS011;54486;51.442;6.778;2023-05-17T10:09:12;5.90;;;1.55;;
67696;SDS011;54486;51.442;6.778;2023-05-17T10:11:41;6.95;;;1.45;;
67696;SDS011;54486;51.442;6.778;2023-05-17T10:14:18;8.57;;;1.60;;
67696;SDS011;54486;51.442;6.778;2023-05-17T10:16:53;6.73;;;1.80;;
67696;SDS011;54486;51.442;6.778;2023-05-17T10:19:20;6.57;;;1.70;;
67696;SDS011;54486;51.442;6.778;2023-05-17T10:21:49;5.95;;;1.63;;
67696;SDS011;54486;51.442;6.778;2023-05-17T10:24:18;8.75;;;1.70;;
67696;SDS011;54486;51.442;6.778;2023-05-17T10:26:51;7.30;;;1.40;;
67696;SDS011;54486;51.442;6.778;2023-05-17T10:29:18;7.10;;;1.63;;
67696;SDS011;54486;51.442;6.778;2023-05-17T10:31:48;6.78;;;1.42;;
67696;SDS011;54486;51.442;6.778;2023-05-17T10:34:20;6.07;;;1.40;;
67696;SDS011;54486;51.442;6.778;2023-05-17T10:36:48;8.10;;;1.58;;
67696;SDS011;54486;51.442;6.778;2023-05-17T10:39:16;6.97;;;1.55;;
67696;SDS011;54486;51.442;6.778;2023-05-17T10:41:45;6.23;;;1.80;;
67696;SDS011;54486;51.442;6.778;2023-05-17T10:44:18;6.20;;;1.65;;
67696;SDS011;54486;51.442;6.778;2023-05-17T10:46:51;5.35;;;1.50;;
67696;SDS011;54486;51.442;6.778;2023-05-17T10:49:23;8.75;;;1.88;;
67696;SDS011;54486;51.442;6.778;2023-05-17T10:51:53;7.32;;;2.05;;
67696;SDS011;54486;51.442;6.778;2023-05-17T10:54:32;7.13;;;1.95;;
67696;SDS011;54486;51.442;6.778;2023-05-17T10:57:03;6.20;;;1.60;;
67696;SDS011;54486;51.442;6.778;2023-05-17T10:59:34;6.65;;;1.70;;
67696;SDS011;54486;51.442;6.778;2023-05-17T11:02:05;5.90;;;1.63;;
67696;SDS011;54486;51.442;6.778;2023-05-17T11:09:43;6.18;;;1.50;;
67696;SDS011;54486;51.442;6.778;2023-05-17T11:12:28;7.55;;;1.85;;
67696;SDS011;54486;51.442;6.778;2023-05-17T11:15:06;6.88;;;1.60;;
67696;SDS011;54486;51.442;6.778;2023-05-17T11:20:08;6.30;;;1.50;;
67696;SDS011;54486;51.442;6.778;2023-05-17T11:22:56;7.43;;;1.73;;
67696;SDS011;54486;51.442;6.778;2023-05-17T11:25:34;6.38;;;1.73;;
67696;SDS011;54486;51.442;6.778;2023-05-17T11:31:01;5.20;;;1.30;;
67696;SDS011;54486;51.442;6.778;2023-05-17T11:33:50;5.38;;;1.60;;
67696;SDS011;54486;51.442;6.778;2023-05-17T11:36:21;8.35;;;1.60;;
67696;SDS011;54486;51.442;6.778;2023-05-17T11:38:49;6.78;;;1.65;;
67696;SDS011;54486;51.442;6.778;2023-05-17T11:41:28;6.80;;;1.87;;
67696;SDS011;54486;51.442;6.778;2023-05-17T11:43:55;5.85;;;1.38;;
67696;SDS011;54486;51.442;6.778;2023-05-17T11:46:22;6.65;;;1.70;;
67696;SDS011;54486;51.442;6.778;2023-05-17T11:48:50;6.47;;;1.73;;
67696;SDS011;54486;51.442;6.778;2023-05-17T11:51:19;7.67;;;1.63;;
67696;SDS011;54486;51.442;6.778;2023-05-17T11:53:54;6.90;;;1.48;;
67696;SDS011;54486;51.442;6.778;2023-05-17T11:56:22;6.03;;;1.50;;
67696;SDS011;54486;51.442;6.778;2023-05-17T11:59:11;7.57;;;2.03;;
67696;SDS011;54486;51.442;6.778;2023-05-17T12:01:45;8.85;;;1.98;;
67696;SDS011;54486;51.442;6.778;2023-05-17T12:04:21;8.73;;;1.93;;
67696;SDS011;54486;51.442;6.778;2023-05-17T12:06:55;6.95;;;1.60;;
67696;SDS011;54486;51.442;6.778;2023-05-17T12:09:23;6.75;;;1.60;;
67696;SDS011;54486;51.442;6.778;2023-05-17T12:11:52;5.82;;;1.60;;
67696;SDS011;54486;51.442;6.778;2023-05-17T12:14:19;4.15;;;1.30;;
67696;SDS011;54486;51.442;6.778;2023-05-17T12:16:49;6.30;;;1.52;;
67696;SDS011;54486;51.442;6.778;2023-05-17T12:19:19;7.28;;;1.80;;
67696;SDS011;54486;51.442;6.778;2023-05-17T12:21:49;7.45;;;1.73;;
67696;SDS011;54486;51.442;6.778;2023-05-17T12:24:17;6.38;;;1.40;;
67696;SDS011;54486;51.442;6.778;2023-05-17T12:26:44;7.55;;;1.90;;
67696;SDS011;54486;51.442;6.778;2023-05-17T12:29:12;6.82;;;1.60;;
67696;SDS011;54486;51.442;6.778;2023-05-17T12:31:41;6.45;;;1.80;;
67696;SDS011;54486;51.442;6.778;2023-05-17T12:34:12;6.68;;;1.45;;
67696;SDS011;54486;51.442;6.778;2023-05-17T12:36:40;6.57;;;1.48;;
67696;SDS011;54486;51.442;6.778;2023-05-17T12:39:08;8.27;;;1.90;;
67696;SDS011;54486;51.442;6.778;2023-05-17T12:41:37;7.53;;;1.80;;
67696;SDS011;54486;51.442;6.778;2023-05-17T12:44:08;5.82;;;1.83;;
67696;SDS011;54486;51.442;6.778;2023-05-17T12:46:41;7.67;;;1.93;;
67696;SDS011;54486;51.442;6.778;2023-05-17T12:49:08;7.03;;;1.63;;
67696;SDS011;54486;51.442;6.778;2023-05-17T12:51:41;6.00;;;1.48;;
67696;SDS011;54486;51.442;6.778;2023-05-17T12:54:28;6.53;;;1.67;;
67696;SDS011;54486;51.442;6.778;2023-05-17T12:56:55;5.55;;;1.73;;
67696;SDS011;54486;51.442;6.778;2023-05-17T12:59:23;5.27;;;1.27;;
67696;SDS011;54486;51.442;6.778;2023-05-17T13:01:52;8.95;;;2.03;;
67696;SDS011;54486;51.442;6.778;2023-05-17T13:04:30;7.43;;;1.97;;
67696;SDS011;54486;51.442;6.778;2023-05-17T13:07:00;7.27;;;2.10;;
67696;SDS011;54486;51.442;6.778;2023-05-17T13:09:30;6.77;;;1.63;;
67696;SDS011;54486;51.442;6.778;2023-05-17T13:12:04;7.07;;;1.63;;
67696;SDS011;54486;51.442;6.778;2023-05-17T13:14:43;6.00;;;1.65;;
67696;SDS011;54486;51.442;6.778;2023-05-17T13:19:54;7.20;;;1.50;;
67696;SDS011;54486;51.442;6.778;2023-05-17T13:22:24;6.90;;;1.20;;
67696;SDS011;54486;51.442;6.778;2023-05-17T13:24:51;6.63;;;1.75;;
67696;SDS011;54486;51.442;6.778;2023-05-17T13:27:19;5.60;;;1.50;;
67696;SDS011;54486;51.442;6.778;2023-05-17T13:29:47;5.68;;;1.48;;
67696;SDS011;54486;51.442;6.778;2023-05-17T13:32:14;6.03;;;1.40;;
67696;SDS011;54486;51.442;6.778;2023-05-17T13:34:41;7.25;;;1.45;;
67696;SDS011;54486;51.442;6.778;2023-05-17T13:37:08;7.07;;;1.70;;
67696;SDS011;54486;51.442;6.778;2023-05-17T13:39:38;8.95;;;1.70;;
67696;SDS011;54486;51.442;6.778;2023-05-17T13:42:08;6.85;;;1.90;;
67696;SDS011;54486;51.442;6.778;2023-05-17T13:44:37;7.78;;;1.80;;
67696;SDS011;54486;51.442;6.778;2023-05-17T13:47:05;7.43;;;1.85;;
67696;SDS011;54486;51.442;6.778;2023-05-17T13:49:32;7.43;;;1.70;;
67696;SDS011;54486;51.442;6.778;2023-05-17T13:52:00;6.43;;;1.60;;
67696;SDS011;54486;51.442;6.778;2023-05-17T13:54:28;7.43;;;1.77;;
67696;SDS011;54486;51.442;6.778;2023-05-17T13:56:55;7.53;;;1.58;;
67696;SDS011;54486;51.442;6.778;2023-05-17T13:59:23;6.85;;;1.33;;
67696;SDS011;54486;51.442;6.778;2023-05-17T14:01:50;6.55;;;1.40;;
67696;SDS011;54486;51.442;6.778;2023-05-17T14:04:18;8.13;;;1.77;;
67696;SDS011;54486;51.442;6.778;2023-05-17T14:06:47;6.47;;;1.55;;
67696;SDS011;54486;51.442;6.778;2023-05-17T14:09:18;6.50;;;1.50;;
67696;SDS011;54486;51.442;6.778;2023-05-17T14:11:45;8.55;;;1.80;;
67696;SDS011;54486;51.442;6.778;2023-05-17T14:14:13;7.40;;;1.83;;
67696;SDS011;54486;51.442;6.778;2023-05-17T14:16:40;5.35;;;1.50;;
67696;SDS011;54486;51.442;6.778;2023-05-17T14:19:08;8.00;;;1.60;;
67696;SDS011;54486;51.442;6.778;2023-05-17T14:21:35;6.47;;;1.80;;
67696;SDS011;54486;51.442;6.778;2023-05-17T14:24:02;6.47;;;1.40;;
67696;SDS011;54486;51.442;6.778;2023-05-17T14:26:32;6.45;;;1.60;;
67696;SDS011;54486;51.442;6.778;2023-05-17T14:28:59;6.35;;;1.58;;
67696;SDS011;54486;51.442;6.778;2023-05-17T14:31:27;7.57;;;1.80;;
67696;SDS011;54486;51.442;6.778;2023-05-17T14:33:55;6.85;;;1.60;;
67696;SDS011;54486;51.442;6.778;2023-05-17T14:36:22;7.07;;;1.50;;
67696;SDS011;54486;51.442;6.778;2023-05-17T14:38:51;8.55;;;1.90;;
67696;SDS011;54486;51.442;6.778;2023-05-17T14:41:20;8.03;;;1.67;;
67696;SDS011;54486;51.442;6.778;2023-05-17T14:43:48;8.38;;;1.88;;
67696;SDS011;54486;51.442;6.778;2023-05-17T14:46:15;7.35;;;1.70;;
67696;SDS011;54486;51.442;6.778;2023-05-17T14:48:43;7.80;;;1.60;;
67696;SDS011;54486;51.442;6.778;2023-05-17T14:51:10;7.17;;;1.53;;
67696;SDS011;54486;51.442;6.778;2023-05-17T14:53:38;6.60;;;1.45;;
67696;SDS011;54486;51.442;6.778;2023-05-17T14:56:05;7.05;;;1.65;;
67696;SDS011;54486;51.442;6.778;2023-05-17T14:58:32;9.25;;;1.77;;
67696;SDS011;54486;51.442;6.778;2023-05-17T15:00:59;6.77;;;1.73;;
67696;SDS011;54486;51.442;6.778;2023-05-17T15:03:32;7.80;;;1.75;;
67696;SDS011;54486;51.442;6.778;2023-05-17T15:06:00;6.15;;;1.58;;
67696;SDS011;54486;51.442;6.778;2023-05-17T15:08:33;8.27;;;2.05;;
67696;SDS011;54486;51.442;6.778;2023-05-17T15:11:00;7.00;;;1.70;;
67696;SDS011;54486;51.442;6.778;2023-05-17T15:13:27;7.18;;;1.83;;
67696;SDS011;54486;51.442;6.778;2023-05-17T15:15:54;8.38;;;1.60;;
67696;SDS011;54486;51.442;6.778;2023-05-17T15:18:21;7.30;;;1.60;;
67696;SDS011;54486;51.442;6.778;2023-05-17T15:20:48;9.40;;;2.00;;